sensor_id;sensor_type;location;lat;lon;timestamp;P1;durP1;ratioP1;P2;durP2;ratioP2
10586;SDS011;5341;47.606;7.576;2022-12-10T00:00:16;18.58;;;14.88;;
10586;SDS011;5341;47.606;7.576;2022-12-10T00:02:45;17.30;;;14.02;;
10586;SDS011;5341;47.606;7.576;2022-12-10T00:05:12;17.83;;;14.05;;
10586;SDS011;5341;47.606;7.576;2022-12-10T00:07:40;18.55;;;14.45;;
10586;SDS011;5341;47.606;7.576;2022-12-10T00:10:10;16.63;;;13.75;;
10586;SDS011;5341;47.606;7.576;2022-12-10T00:12:37;16.55;;;13.10;;
10586;SDS011;5341;47.606;7.576;2022-12-10T00:15:06;17.85;;;13.82;;
10586;SDS011;5341;47.606;7.576;2022-12-10T00:17:34;16.25;;;13.25;;
10586;SDS011;5341;47.606;7.576;2022-12-10T00:20:02;17.52;;;13.70;;
10586;SDS011;5341;47.606;7.576;2022-12-10T00:22:31;18.83;;;13.55;;
10586;SDS011;5341;47.606;7.576;2022-12-10T00:24:59;17.17;;;13.40;;
10586;SDS011;5341;47.606;7.576;2022-12-10T00:27:28;18.52;;;13.77;;
10586;SDS011;5341;47.606;7.576;2022-12-10T00:29:58;18.50;;;13.77;;
10586;SDS011;5341;47.606;7.576;2022-12-10T00:32:25;20.50;;;13.95;;
10586;SDS011;5341;47.606;7.576;2022-12-10T00:34:53;17.65;;;13.82;;
10586;SDS011;5341;47.606;7.576;2022-12-10T00:37:20;17.80;;;13.65;;
10586;SDS011;5341;47.606;7.576;2022-12-10T00:39:51;18.33;;;14.05;;
10586;SDS011;5341;47.606;7.576;2022-12-10T00:42:25;20.27;;;15.20;;
10586;SDS011;5341;47.606;7.576;2022-12-10T00:44:55;18.95;;;14.45;;
10586;SDS011;5341;47.606;7.576;2022-12-10T00:47:44;19.85;;;15.57;;
10586;SDS011;5341;47.606;7.576;2022-12-10T00:53:46;22.45;;;14.93;;
10586;SDS011;5341;47.606;7.576;2022-12-10T00:56:16;24.92;;;15.95;;
10586;SDS011;5341;47.606;7.576;2022-12-10T00:58:54;19.35;;;15.10;;
10586;SDS011;5341;47.606;7.576;2022-12-10T01:01:50;20.02;;;15.02;;
10586;SDS011;5341;47.606;7.576;2022-12-10T01:04:19;19.85;;;14.75;;
10586;SDS011;5341;47.606;7.576;2022-12-10T01:06:47;19.65;;;15.02;;
10586;SDS011;5341;47.606;7.576;2022-12-10T01:09:17;18.05;;;14.77;;
10586;SDS011;5341;47.606;7.576;2022-12-10T01:11:47;19.25;;;15.02;;
10586;SDS011;5341;47.606;7.576;2022-12-10T01:14:16;19.23;;;14.90;;
10586;SDS011;5341;47.606;7.576;2022-12-10T01:16:47;17.30;;;14.40;;
10586;SDS011;5341;47.606;7.576;2022-12-10T01:19:17;19.95;;;15.45;;
10586;SDS011;5341;47.606;7.576;2022-12-10T01:21:49;17.60;;;14.18;;
10586;SDS011;5341;47.606;7.576;2022-12-10T01:24:18;19.15;;;14.95;;
10586;SDS011;5341;47.606;7.576;2022-12-10T01:26:48;22.05;;;15.60;;
10586;SDS011;5341;47.606;7.576;2022-12-10T01:29:16;18.60;;;14.88;;
10586;SDS011;5341;47.606;7.576;2022-12-10T01:31:44;18.15;;;14.73;;
10586;SDS011;5341;47.606;7.576;2022-12-10T01:34:13;19.80;;;15.13;;
10586;SDS011;5341;47.606;7.576;2022-12-10T01:36:43;20.95;;;15.23;;
10586;SDS011;5341;47.606;7.576;2022-12-10T01:39:13;19.98;;;15.38;;
10586;SDS011;5341;47.606;7.576;2022-12-10T01:41:43;19.52;;;15.70;;
10586;SDS011;5341;47.606;7.576;2022-12-10T01:47:37;18.80;;;14.02;;
10586;SDS011;5341;47.606;7.576;2022-12-10T01:50:06;19.85;;;15.57;;
10586;SDS011;5341;47.606;7.576;2022-12-10T01:52:38;19.10;;;14.77;;
10586;SDS011;5341;47.606;7.576;2022-12-10T01:55:07;20.02;;;15.43;;
10586;SDS011;5341;47.606;7.576;2022-12-10T01:57:58;20.70;;;15.52;;
10586;SDS011;5341;47.606;7.576;2022-12-10T02:00:25;18.65;;;14.70;;
10586;SDS011;5341;47.606;7.576;2022-12-10T02:02:54;18.42;;;14.50;;
10586;SDS011;5341;47.606;7.576;2022-12-10T02:05:27;16.85;;;13.60;;
10586;SDS011;5341;47.606;7.576;2022-12-10T02:08:04;19.17;;;15.52;;
10586;SDS011;5341;47.606;7.576;2022-12-10T02:10:46;19.58;;;14.55;;
10586;SDS011;5341;47.606;7.576;2022-12-10T02:13:27;18.25;;;14.55;;
10586;SDS011;5341;47.606;7.576;2022-12-10T02:16:00;18.23;;;14.65;;
10586;SDS011;5341;47.606;7.576;2022-12-10T02:23:18;18.38;;;14.25;;
10586;SDS011;5341;47.606;7.576;2022-12-10T02:26:35;18.77;;;14.40;;
10586;SDS011;5341;47.606;7.576;2022-12-10T02:29:56;19.77;;;14.73;;
10586;SDS011;5341;47.606;7.576;2022-12-10T02:32:30;18.50;;;15.40;;
10586;SDS011;5341;47.606;7.576;2022-12-10T02:35:04;18.55;;;14.70;;
10586;SDS011;5341;47.606;7.576;2022-12-10T02:37:37;19.98;;;15.05;;
10586;SDS011;5341;47.606;7.576;2022-12-10T02:40:11;20.13;;;14.77;;
10586;SDS011;5341;47.606;7.576;2022-12-10T02:42:46;20.73;;;16.08;;
10586;SDS011;5341;47.606;7.576;2022-12-10T02:45:24;19.75;;;15.07;;
10586;SDS011;5341;47.606;7.576;2022-12-10T02:47:58;20.10;;;15.32;;
10586;SDS011;5341;47.606;7.576;2022-12-10T02:50:34;18.40;;;14.85;;
10586;SDS011;5341;47.606;7.576;2022-12-10T02:53:02;17.92;;;14.48;;
10586;SDS011;5341;47.606;7.576;2022-12-10T02:55:36;19.48;;;15.18;;
10586;SDS011;5341;47.606;7.576;2022-12-10T02:58:15;20.83;;;15.68;;
10586;SDS011;5341;47.606;7.576;2022-12-10T03:00:54;20.40;;;15.38;;
10586;SDS011;5341;47.606;7.576;2022-12-10T03:03:33;17.88;;;14.77;;
10586;SDS011;5341;47.606;7.576;2022-12-10T03:09:19;17.63;;;14.80;;
10586;SDS011;5341;47.606;7.576;2022-12-10T03:11:50;19.63;;;14.70;;
10586;SDS011;5341;47.606;7.576;2022-12-10T03:14:27;20.38;;;16.08;;
10586;SDS011;5341;47.606;7.576;2022-12-10T03:17:00;19.48;;;14.82;;
10586;SDS011;5341;47.606;7.576;2022-12-10T03:19:30;20.73;;;15.55;;
10586;SDS011;5341;47.606;7.576;2022-12-10T03:22:02;18.95;;;15.55;;
10586;SDS011;5341;47.606;7.576;2022-12-10T03:24:32;18.35;;;15.10;;
10586;SDS011;5341;47.606;7.576;2022-12-10T03:27:01;18.20;;;15.20;;
10586;SDS011;5341;47.606;7.576;2022-12-10T03:29:33;20.67;;;15.88;;
10586;SDS011;5341;47.606;7.576;2022-12-10T03:32:05;19.48;;;15.50;;
10586;SDS011;5341;47.606;7.576;2022-12-10T03:34:33;18.85;;;15.18;;
10586;SDS011;5341;47.606;7.576;2022-12-10T03:37:03;19.27;;;15.45;;
10586;SDS011;5341;47.606;7.576;2022-12-10T03:39:32;18.35;;;15.15;;
10586;SDS011;5341;47.606;7.576;2022-12-10T03:42:00;21.70;;;16.30;;
10586;SDS011;5341;47.606;7.576;2022-12-10T03:44:28;20.40;;;16.30;;
10586;SDS011;5341;47.606;7.576;2022-12-10T03:46:57;19.65;;;15.77;;
10586;SDS011;5341;47.606;7.576;2022-12-10T03:49:36;18.23;;;15.65;;
10586;SDS011;5341;47.606;7.576;2022-12-10T03:52:52;18.98;;;15.45;;
10586;SDS011;5341;47.606;7.576;2022-12-10T03:58:33;19.25;;;14.70;;
10586;SDS011;5341;47.606;7.576;2022-12-10T04:01:02;17.98;;;15.32;;
10586;SDS011;5341;47.606;7.576;2022-12-10T04:03:34;18.23;;;14.77;;
10586;SDS011;5341;47.606;7.576;2022-12-10T04:09:26;18.27;;;14.38;;
10586;SDS011;5341;47.606;7.576;2022-12-10T04:11:55;18.27;;;14.98;;
10586;SDS011;5341;47.606;7.576;2022-12-10T04:14:23;19.50;;;15.63;;
10586;SDS011;5341;47.606;7.576;2022-12-10T04:20:47;17.50;;;14.10;;
10586;SDS011;5341;47.606;7.576;2022-12-10T04:23:32;17.40;;;14.48;;
10586;SDS011;5341;47.606;7.576;2022-12-10T04:26:18;19.10;;;15.05;;
10586;SDS011;5341;47.606;7.576;2022-12-10T04:28:59;18.92;;;14.75;;
10586;SDS011;5341;47.606;7.576;2022-12-10T04:31:27;16.42;;;13.98;;
10586;SDS011;5341;47.606;7.576;2022-12-10T04:33:55;16.85;;;14.52;;
10586;SDS011;5341;47.606;7.576;2022-12-10T04:36:22;18.83;;;14.57;;
10586;SDS011;5341;47.606;7.576;2022-12-10T04:38:50;20.10;;;14.98;;
10586;SDS011;5341;47.606;7.576;2022-12-10T04:41:19;20.70;;;15.80;;
10586;SDS011;5341;47.606;7.576;2022-12-10T04:43:47;18.10;;;14.43;;
10586;SDS011;5341;47.606;7.576;2022-12-10T04:46:15;18.75;;;15.30;;
10586;SDS011;5341;47.606;7.576;2022-12-10T04:48:42;21.40;;;15.48;;
10586;SDS011;5341;47.606;7.576;2022-12-10T04:51:10;20.58;;;15.20;;
10586;SDS011;5341;47.606;7.576;2022-12-10T04:53:37;16.95;;;14.10;;
10586;SDS011;5341;47.606;7.576;2022-12-10T04:56:06;18.65;;;15.05;;
10586;SDS011;5341;47.606;7.576;2022-12-10T04:58:36;20.58;;;15.77;;
10586;SDS011;5341;47.606;7.576;2022-12-10T05:01:05;21.80;;;16.17;;
10586;SDS011;5341;47.606;7.576;2022-12-10T05:03:38;23.58;;;16.75;;
10586;SDS011;5341;47.606;7.576;2022-12-10T05:06:06;20.45;;;16.13;;
10586;SDS011;5341;47.606;7.576;2022-12-10T05:08:35;19.83;;;15.63;;
10586;SDS011;5341;47.606;7.576;2022-12-10T05:11:04;18.90;;;15.20;;
10586;SDS011;5341;47.606;7.576;2022-12-10T05:13:36;21.20;;;15.88;;
10586;SDS011;5341;47.606;7.576;2022-12-10T05:16:05;21.58;;;14.98;;
10586;SDS011;5341;47.606;7.576;2022-12-10T05:18:34;22.10;;;15.57;;
10586;SDS011;5341;47.606;7.576;2022-12-10T05:21:03;20.15;;;15.95;;
10586;SDS011;5341;47.606;7.576;2022-12-10T05:23:33;21.80;;;16.38;;
10586;SDS011;5341;47.606;7.576;2022-12-10T05:26:15;18.55;;;15.15;;
10586;SDS011;5341;47.606;7.576;2022-12-10T05:32:10;20.52;;;15.52;;
10586;SDS011;5341;47.606;7.576;2022-12-10T05:34:43;19.63;;;14.98;;
10586;SDS011;5341;47.606;7.576;2022-12-10T05:37:22;20.73;;;15.73;;
10586;SDS011;5341;47.606;7.576;2022-12-10T05:40:12;19.08;;;15.25;;
10586;SDS011;5341;47.606;7.576;2022-12-10T05:43:08;20.73;;;15.40;;
10586;SDS011;5341;47.606;7.576;2022-12-10T05:45:39;20.23;;;16.27;;
10586;SDS011;5341;47.606;7.576;2022-12-10T05:48:08;22.92;;;16.75;;
10586;SDS011;5341;47.606;7.576;2022-12-10T05:50:36;19.80;;;16.20;;
10586;SDS011;5341;47.606;7.576;2022-12-10T05:53:04;20.50;;;15.38;;
10586;SDS011;5341;47.606;7.576;2022-12-10T05:55:32;20.40;;;15.95;;
10586;SDS011;5341;47.606;7.576;2022-12-10T05:58:00;21.40;;;16.80;;
10586;SDS011;5341;47.606;7.576;2022-12-10T06:00:28;22.65;;;16.92;;
10586;SDS011;5341;47.606;7.576;2022-12-10T06:02:57;22.15;;;17.05;;
10586;SDS011;5341;47.606;7.576;2022-12-10T06:05:25;21.80;;;16.83;;
10586;SDS011;5341;47.606;7.576;2022-12-10T06:07:53;22.52;;;16.58;;
10586;SDS011;5341;47.606;7.576;2022-12-10T06:10:23;22.15;;;17.20;;
10586;SDS011;5341;47.606;7.576;2022-12-10T06:12:51;21.58;;;16.50;;
10586;SDS011;5341;47.606;7.576;2022-12-10T06:15:33;22.83;;;16.92;;
10586;SDS011;5341;47.606;7.576;2022-12-10T06:18:03;21.55;;;16.98;;
10586;SDS011;5341;47.606;7.576;2022-12-10T06:20:30;21.98;;;17.90;;
10586;SDS011;5341;47.606;7.576;2022-12-10T06:22:58;22.67;;;17.73;;
10586;SDS011;5341;47.606;7.576;2022-12-10T06:25:26;22.25;;;17.05;;
10586;SDS011;5341;47.606;7.576;2022-12-10T06:27:54;21.92;;;16.83;;
10586;SDS011;5341;47.606;7.576;2022-12-10T06:30:22;25.95;;;17.67;;
10586;SDS011;5341;47.606;7.576;2022-12-10T06:32:50;25.50;;;18.45;;
10586;SDS011;5341;47.606;7.576;2022-12-10T06:35:19;25.63;;;18.50;;
10586;SDS011;5341;47.606;7.576;2022-12-10T06:37:46;23.75;;;17.77;;
10586;SDS011;5341;47.606;7.576;2022-12-10T06:40:16;22.75;;;17.85;;
10586;SDS011;5341;47.606;7.576;2022-12-10T06:42:44;24.67;;;18.75;;
10586;SDS011;5341;47.606;7.576;2022-12-10T06:45:12;22.85;;;17.73;;
10586;SDS011;5341;47.606;7.576;2022-12-10T06:47:40;24.65;;;17.83;;
10586;SDS011;5341;47.606;7.576;2022-12-10T06:50:11;23.58;;;17.65;;
10586;SDS011;5341;47.606;7.576;2022-12-10T06:52:40;23.48;;;17.65;;
10586;SDS011;5341;47.606;7.576;2022-12-10T06:55:09;21.77;;;16.60;;
10586;SDS011;5341;47.606;7.576;2022-12-10T06:57:38;19.83;;;16.58;;
10586;SDS011;5341;47.606;7.576;2022-12-10T07:00:06;20.50;;;16.33;;
10586;SDS011;5341;47.606;7.576;2022-12-10T07:02:36;20.35;;;16.58;;
10586;SDS011;5341;47.606;7.576;2022-12-10T07:05:04;20.30;;;15.80;;
10586;SDS011;5341;47.606;7.576;2022-12-10T07:07:31;20.67;;;16.05;;
10586;SDS011;5341;47.606;7.576;2022-12-10T07:10:00;18.95;;;15.73;;
10586;SDS011;5341;47.606;7.576;2022-12-10T07:12:29;20.15;;;15.85;;
10586;SDS011;5341;47.606;7.576;2022-12-10T07:14:58;17.73;;;15.32;;
10586;SDS011;5341;47.606;7.576;2022-12-10T07:17:25;20.02;;;15.00;;
10586;SDS011;5341;47.606;7.576;2022-12-10T07:19:53;18.63;;;15.57;;
10586;SDS011;5341;47.606;7.576;2022-12-10T07:22:22;17.35;;;14.23;;
10586;SDS011;5341;47.606;7.576;2022-12-10T07:24:54;17.38;;;14.20;;
10586;SDS011;5341;47.606;7.576;2022-12-10T07:27:23;18.67;;;14.90;;
10586;SDS011;5341;47.606;7.576;2022-12-10T07:29:51;18.02;;;14.50;;
10586;SDS011;5341;47.606;7.576;2022-12-10T07:32:18;18.38;;;15.02;;
10586;SDS011;5341;47.606;7.576;2022-12-10T07:34:47;18.95;;;14.90;;
10586;SDS011;5341;47.606;7.576;2022-12-10T07:37:15;17.50;;;14.48;;
10586;SDS011;5341;47.606;7.576;2022-12-10T07:39:42;20.65;;;16.10;;
10586;SDS011;5341;47.606;7.576;2022-12-10T07:42:11;18.42;;;15.00;;
10586;SDS011;5341;47.606;7.576;2022-12-10T07:44:40;19.10;;;15.90;;
10586;SDS011;5341;47.606;7.576;2022-12-10T07:47:08;23.50;;;17.92;;
10586;SDS011;5341;47.606;7.576;2022-12-10T07:49:36;23.88;;;17.67;;
10586;SDS011;5341;47.606;7.576;2022-12-10T07:52:04;22.50;;;17.13;;
10586;SDS011;5341;47.606;7.576;2022-12-10T07:54:32;23.05;;;17.70;;
10586;SDS011;5341;47.606;7.576;2022-12-10T07:56:59;26.38;;;18.33;;
10586;SDS011;5341;47.606;7.576;2022-12-10T07:59:27;25.20;;;18.80;;
10586;SDS011;5341;47.606;7.576;2022-12-10T08:01:59;26.10;;;18.92;;
10586;SDS011;5341;47.606;7.576;2022-12-10T08:04:27;25.70;;;18.50;;
10586;SDS011;5341;47.606;7.576;2022-12-10T08:06:59;27.23;;;18.70;;
10586;SDS011;5341;47.606;7.576;2022-12-10T08:09:27;26.13;;;19.25;;
10586;SDS011;5341;47.606;7.576;2022-12-10T08:11:55;25.08;;;17.88;;
10586;SDS011;5341;47.606;7.576;2022-12-10T08:14:23;26.13;;;18.55;;
10586;SDS011;5341;47.606;7.576;2022-12-10T08:16:51;27.55;;;19.33;;
10586;SDS011;5341;47.606;7.576;2022-12-10T08:19:22;25.75;;;17.90;;
10586;SDS011;5341;47.606;7.576;2022-12-10T08:21:51;23.92;;;17.83;;
10586;SDS011;5341;47.606;7.576;2022-12-10T08:24:19;25.15;;;17.85;;
10586;SDS011;5341;47.606;7.576;2022-12-10T08:26:51;27.83;;;19.50;;
10586;SDS011;5341;47.606;7.576;2022-12-10T08:29:20;29.08;;;19.90;;
10586;SDS011;5341;47.606;7.576;2022-12-10T08:31:52;29.23;;;21.23;;
10586;SDS011;5341;47.606;7.576;2022-12-10T08:34:30;31.50;;;20.63;;
10586;SDS011;5341;47.606;7.576;2022-12-10T08:37:10;32.83;;;21.55;;
10586;SDS011;5341;47.606;7.576;2022-12-10T08:39:37;28.88;;;20.98;;
10586;SDS011;5341;47.606;7.576;2022-12-10T08:42:11;30.70;;;21.23;;
10586;SDS011;5341;47.606;7.576;2022-12-10T08:44:50;30.08;;;20.90;;
10586;SDS011;5341;47.606;7.576;2022-12-10T08:47:17;31.52;;;21.45;;
10586;SDS011;5341;47.606;7.576;2022-12-10T08:49:47;28.83;;;19.95;;
10586;SDS011;5341;47.606;7.576;2022-12-10T08:52:15;32.30;;;22.55;;
10586;SDS011;5341;47.606;7.576;2022-12-10T08:54:44;33.80;;;22.55;;
10586;SDS011;5341;47.606;7.576;2022-12-10T08:57:16;31.67;;;21.95;;
10586;SDS011;5341;47.606;7.576;2022-12-10T08:59:44;32.42;;;22.35;;
10586;SDS011;5341;47.606;7.576;2022-12-10T09:02:13;32.00;;;21.88;;
10586;SDS011;5341;47.606;7.576;2022-12-10T09:04:41;31.13;;;22.52;;
10586;SDS011;5341;47.606;7.576;2022-12-10T09:07:13;30.20;;;21.73;;
10586;SDS011;5341;47.606;7.576;2022-12-10T09:09:41;33.03;;;23.20;;
10586;SDS011;5341;47.606;7.576;2022-12-10T09:12:10;33.80;;;23.77;;
10586;SDS011;5341;47.606;7.576;2022-12-10T09:14:39;32.75;;;23.48;;
10586;SDS011;5341;47.606;7.576;2022-12-10T09:17:09;33.40;;;23.08;;
10586;SDS011;5341;47.606;7.576;2022-12-10T09:19:38;32.60;;;23.63;;
10586;SDS011;5341;47.606;7.576;2022-12-10T09:22:07;34.40;;;24.10;;
10586;SDS011;5341;47.606;7.576;2022-12-10T09:24:45;32.55;;;23.77;;
10586;SDS011;5341;47.606;7.576;2022-12-10T09:27:26;34.25;;;23.98;;
10586;SDS011;5341;47.606;7.576;2022-12-10T09:30:09;35.53;;;24.50;;
10586;SDS011;5341;47.606;7.576;2022-12-10T09:32:53;31.73;;;23.33;;
10586;SDS011;5341;47.606;7.576;2022-12-10T09:38:25;33.63;;;23.13;;
10586;SDS011;5341;47.606;7.576;2022-12-10T09:40:58;33.83;;;22.90;;
10586;SDS011;5341;47.606;7.576;2022-12-10T09:43:32;31.77;;;22.75;;
10586;SDS011;5341;47.606;7.576;2022-12-10T09:46:13;29.27;;;21.90;;
10586;SDS011;5341;47.606;7.576;2022-12-10T09:48:56;33.97;;;23.67;;
10586;SDS011;5341;47.606;7.576;2022-12-10T09:51:31;31.42;;;22.25;;
10586;SDS011;5341;47.606;7.576;2022-12-10T09:54:03;29.15;;;21.02;;
10586;SDS011;5341;47.606;7.576;2022-12-10T09:56:45;31.20;;;22.33;;
10586;SDS011;5341;47.606;7.576;2022-12-10T09:59:27;32.80;;;21.92;;
10586;SDS011;5341;47.606;7.576;2022-12-10T10:02:02;34.08;;;22.98;;
10586;SDS011;5341;47.606;7.576;2022-12-10T10:04:38;35.17;;;22.98;;
10586;SDS011;5341;47.606;7.576;2022-12-10T10:07:06;33.65;;;22.60;;
10586;SDS011;5341;47.606;7.576;2022-12-10T10:09:38;32.85;;;23.23;;
10586;SDS011;5341;47.606;7.576;2022-12-10T10:12:11;28.80;;;21.55;;
10586;SDS011;5341;47.606;7.576;2022-12-10T10:14:42;30.27;;;22.15;;
10586;SDS011;5341;47.606;7.576;2022-12-10T10:17:12;34.00;;;22.15;;
10586;SDS011;5341;47.606;7.576;2022-12-10T10:19:46;32.13;;;23.13;;
10586;SDS011;5341;47.606;7.576;2022-12-10T10:22:38;29.10;;;21.40;;
10586;SDS011;5341;47.606;7.576;2022-12-10T10:25:16;33.88;;;23.25;;
10586;SDS011;5341;47.606;7.576;2022-12-10T10:27:47;32.13;;;22.70;;
10586;SDS011;5341;47.606;7.576;2022-12-10T10:30:15;34.40;;;22.85;;
10586;SDS011;5341;47.606;7.576;2022-12-10T10:32:46;31.90;;;22.63;;
10586;SDS011;5341;47.606;7.576;2022-12-10T10:35:20;31.83;;;22.73;;
10586;SDS011;5341;47.606;7.576;2022-12-10T10:37:58;33.08;;;22.17;;
10586;SDS011;5341;47.606;7.576;2022-12-10T10:40:28;31.88;;;22.63;;
10586;SDS011;5341;47.606;7.576;2022-12-10T10:43:01;34.42;;;22.80;;
10586;SDS011;5341;47.606;7.576;2022-12-10T10:45:39;31.73;;;22.35;;
10586;SDS011;5341;47.606;7.576;2022-12-10T10:48:12;34.63;;;22.80;;
10586;SDS011;5341;47.606;7.576;2022-12-10T10:50:42;30.80;;;22.65;;
10586;SDS011;5341;47.606;7.576;2022-12-10T10:56:10;32.97;;;23.85;;
10586;SDS011;5341;47.606;7.576;2022-12-10T10:58:49;32.92;;;22.77;;
10586;SDS011;5341;47.606;7.576;2022-12-10T11:01:23;36.55;;;24.20;;
10586;SDS011;5341;47.606;7.576;2022-12-10T11:03:54;31.98;;;22.92;;
10586;SDS011;5341;47.606;7.576;2022-12-10T11:06:24;33.80;;;23.35;;
10586;SDS011;5341;47.606;7.576;2022-12-10T11:08:54;31.83;;;23.20;;
10586;SDS011;5341;47.606;7.576;2022-12-10T11:11:29;34.42;;;24.42;;
10586;SDS011;5341;47.606;7.576;2022-12-10T11:17:00;33.35;;;24.17;;
10586;SDS011;5341;47.606;7.576;2022-12-10T11:19:28;32.33;;;25.77;;
10586;SDS011;5341;47.606;7.576;2022-12-10T11:21:58;34.00;;;24.30;;
10586;SDS011;5341;47.606;7.576;2022-12-10T11:24:45;34.67;;;24.42;;
10586;SDS011;5341;47.606;7.576;2022-12-10T11:27:14;33.92;;;24.77;;
10586;SDS011;5341;47.606;7.576;2022-12-10T11:29:55;32.75;;;23.85;;
10586;SDS011;5341;47.606;7.576;2022-12-10T11:32:33;29.05;;;22.63;;
10586;SDS011;5341;47.606;7.576;2022-12-10T11:35:15;30.92;;;22.80;;
10586;SDS011;5341;47.606;7.576;2022-12-10T11:37:49;31.90;;;23.08;;
10586;SDS011;5341;47.606;7.576;2022-12-10T11:40:30;31.13;;;22.05;;
10586;SDS011;5341;47.606;7.576;2022-12-10T11:43:14;30.92;;;22.05;;
10586;SDS011;5341;47.606;7.576;2022-12-10T11:45:58;30.15;;;22.20;;
10586;SDS011;5341;47.606;7.576;2022-12-10T11:48:39;29.60;;;22.15;;
10586;SDS011;5341;47.606;7.576;2022-12-10T11:51:23;30.20;;;22.15;;
10586;SDS011;5341;47.606;7.576;2022-12-10T11:54:05;30.83;;;22.10;;
10586;SDS011;5341;47.606;7.576;2022-12-10T11:56:43;31.13;;;22.75;;
10586;SDS011;5341;47.606;7.576;2022-12-10T11:59:16;31.10;;;22.48;;
10586;SDS011;5341;47.606;7.576;2022-12-10T12:05:07;32.80;;;22.13;;
10586;SDS011;5341;47.606;7.576;2022-12-10T12:07:55;31.23;;;23.00;;
10586;SDS011;5341;47.606;7.576;2022-12-10T12:13:30;29.23;;;21.00;;
10586;SDS011;5341;47.606;7.576;2022-12-10T12:16:09;32.22;;;22.35;;
10586;SDS011;5341;47.606;7.576;2022-12-10T12:18:46;30.52;;;21.88;;
10586;SDS011;5341;47.606;7.576;2022-12-10T12:21:29;31.73;;;23.33;;
10586;SDS011;5341;47.606;7.576;2022-12-10T12:23:58;32.40;;;22.90;;
10586;SDS011;5341;47.606;7.576;2022-12-10T12:26:32;32.55;;;23.15;;
10586;SDS011;5341;47.606;7.576;2022-12-10T12:29:08;30.13;;;22.30;;
10586;SDS011;5341;47.606;7.576;2022-12-10T12:31:57;30.77;;;22.65;;
10586;SDS011;5341;47.606;7.576;2022-12-10T12:34:33;30.92;;;22.45;;
10586;SDS011;5341;47.606;7.576;2022-12-10T12:37:17;33.67;;;21.85;;
10586;SDS011;5341;47.606;7.576;2022-12-10T12:39:48;34.75;;;23.33;;
10586;SDS011;5341;47.606;7.576;2022-12-10T12:42:46;30.95;;;22.20;;
10586;SDS011;5341;47.606;7.576;2022-12-10T12:45:39;28.73;;;21.35;;
10586;SDS011;5341;47.606;7.576;2022-12-10T12:48:18;30.55;;;22.00;;
10586;SDS011;5341;47.606;7.576;2022-12-10T12:51:00;33.40;;;22.85;;
10586;SDS011;5341;47.606;7.576;2022-12-10T12:53:40;30.10;;;21.88;;
10586;SDS011;5341;47.606;7.576;2022-12-10T12:56:10;30.15;;;22.42;;
10586;SDS011;5341;47.606;7.576;2022-12-10T12:59:01;31.25;;;22.35;;
10586;SDS011;5341;47.606;7.576;2022-12-10T13:01:40;31.15;;;22.83;;
10586;SDS011;5341;47.606;7.576;2022-12-10T13:04:29;33.88;;;23.42;;
10586;SDS011;5341;47.606;7.576;2022-12-10T13:07:13;31.50;;;23.23;;
10586;SDS011;5341;47.606;7.576;2022-12-10T13:19:23;32.65;;;23.55;;
10586;SDS011;5341;47.606;7.576;2022-12-10T13:21:57;32.47;;;23.02;;
10586;SDS011;5341;47.606;7.576;2022-12-10T13:27:35;33.60;;;23.88;;
10586;SDS011;5341;47.606;7.576;2022-12-10T13:30:05;30.05;;;22.10;;
10586;SDS011;5341;47.606;7.576;2022-12-10T13:33:00;30.83;;;23.05;;
10586;SDS011;5341;47.606;7.576;2022-12-10T13:35:33;33.75;;;23.00;;
10586;SDS011;5341;47.606;7.576;2022-12-10T13:38:17;29.42;;;21.73;;
10586;SDS011;5341;47.606;7.576;2022-12-10T13:40:56;32.78;;;22.73;;
10586;SDS011;5341;47.606;7.576;2022-12-10T13:43:57;32.22;;;22.10;;
10586;SDS011;5341;47.606;7.576;2022-12-10T13:46:55;30.40;;;22.50;;
10586;SDS011;5341;47.606;7.576;2022-12-10T13:52:32;32.25;;;22.98;;
10586;SDS011;5341;47.606;7.576;2022-12-10T13:55:23;32.83;;;22.90;;
10586;SDS011;5341;47.606;7.576;2022-12-10T13:58:03;30.50;;;22.15;;
10586;SDS011;5341;47.606;7.576;2022-12-10T14:00:46;32.15;;;23.42;;
10586;SDS011;5341;47.606;7.576;2022-12-10T14:03:29;31.10;;;23.38;;
10586;SDS011;5341;47.606;7.576;2022-12-10T14:06:14;35.22;;;25.30;;
10586;SDS011;5341;47.606;7.576;2022-12-10T14:08:52;29.58;;;23.33;;
10586;SDS011;5341;47.606;7.576;2022-12-10T14:11:25;33.33;;;24.35;;
10586;SDS011;5341;47.606;7.576;2022-12-10T14:13:56;32.05;;;23.75;;
10586;SDS011;5341;47.606;7.576;2022-12-10T14:16:28;32.42;;;25.30;;
10586;SDS011;5341;47.606;7.576;2022-12-10T14:18:59;32.53;;;25.25;;
10586;SDS011;5341;47.606;7.576;2022-12-10T14:21:31;36.08;;;25.42;;
10586;SDS011;5341;47.606;7.576;2022-12-10T14:24:04;34.58;;;25.38;;
10586;SDS011;5341;47.606;7.576;2022-12-10T14:26:33;36.80;;;25.25;;
10586;SDS011;5341;47.606;7.576;2022-12-10T14:29:12;35.38;;;25.45;;
10586;SDS011;5341;47.606;7.576;2022-12-10T14:31:48;32.10;;;24.25;;
10586;SDS011;5341;47.606;7.576;2022-12-10T14:34:17;36.08;;;25.70;;
10586;SDS011;5341;47.606;7.576;2022-12-10T14:36:51;35.78;;;24.88;;
10586;SDS011;5341;47.606;7.576;2022-12-10T14:39:24;34.03;;;24.35;;
10586;SDS011;5341;47.606;7.576;2022-12-10T14:42:00;33.95;;;25.20;;
10586;SDS011;5341;47.606;7.576;2022-12-10T14:44:31;34.45;;;24.48;;
10586;SDS011;5341;47.606;7.576;2022-12-10T14:47:12;35.60;;;25.35;;
10586;SDS011;5341;47.606;7.576;2022-12-10T14:49:42;33.25;;;24.45;;
10586;SDS011;5341;47.606;7.576;2022-12-10T14:52:12;33.22;;;24.10;;
10586;SDS011;5341;47.606;7.576;2022-12-10T14:54:41;34.13;;;24.30;;
10586;SDS011;5341;47.606;7.576;2022-12-10T14:57:13;32.65;;;24.02;;
10586;SDS011;5341;47.606;7.576;2022-12-10T14:59:46;32.35;;;23.95;;
10586;SDS011;5341;47.606;7.576;2022-12-10T15:02:23;34.17;;;23.02;;
10586;SDS011;5341;47.606;7.576;2022-12-10T15:04:59;31.42;;;22.60;;
10586;SDS011;5341;47.606;7.576;2022-12-10T15:07:30;31.38;;;23.48;;
10586;SDS011;5341;47.606;7.576;2022-12-10T15:10:03;32.90;;;22.67;;
10586;SDS011;5341;47.606;7.576;2022-12-10T15:12:36;30.85;;;23.13;;
10586;SDS011;5341;47.606;7.576;2022-12-10T15:15:12;28.25;;;21.40;;
10586;SDS011;5341;47.606;7.576;2022-12-10T15:17:51;30.73;;;22.30;;
10586;SDS011;5341;47.606;7.576;2022-12-10T15:20:24;32.85;;;23.65;;
10586;SDS011;5341;47.606;7.576;2022-12-10T15:22:53;32.00;;;23.30;;
10586;SDS011;5341;47.606;7.576;2022-12-10T15:25:23;31.52;;;23.00;;
10586;SDS011;5341;47.606;7.576;2022-12-10T15:27:58;30.80;;;23.15;;
10586;SDS011;5341;47.606;7.576;2022-12-10T15:30:35;29.80;;;22.30;;
10586;SDS011;5341;47.606;7.576;2022-12-10T15:33:16;29.85;;;22.42;;
10586;SDS011;5341;47.606;7.576;2022-12-10T15:35:53;31.73;;;22.48;;
10586;SDS011;5341;47.606;7.576;2022-12-10T15:38:22;31.92;;;23.40;;
10586;SDS011;5341;47.606;7.576;2022-12-10T15:40:50;31.92;;;22.70;;
10586;SDS011;5341;47.606;7.576;2022-12-10T15:43:24;35.42;;;24.80;;
10586;SDS011;5341;47.606;7.576;2022-12-10T15:45:55;35.80;;;25.88;;
10586;SDS011;5341;47.606;7.576;2022-12-10T15:48:29;37.72;;;25.63;;
10586;SDS011;5341;47.606;7.576;2022-12-10T15:50:57;34.58;;;24.85;;
10586;SDS011;5341;47.606;7.576;2022-12-10T15:53:26;36.70;;;25.10;;
10586;SDS011;5341;47.606;7.576;2022-12-10T15:55:55;39.78;;;25.80;;
10586;SDS011;5341;47.606;7.576;2022-12-10T15:58:24;35.60;;;26.10;;
10586;SDS011;5341;47.606;7.576;2022-12-10T16:00:52;35.80;;;25.73;;
10586;SDS011;5341;47.606;7.576;2022-12-10T16:03:20;33.88;;;24.63;;
10586;SDS011;5341;47.606;7.576;2022-12-10T16:05:55;38.65;;;26.40;;
10586;SDS011;5341;47.606;7.576;2022-12-10T16:08:24;35.20;;;25.55;;